VVA108 SVMC-MPTO
Flight info
| Callsign | VVA108 |
|---|---|
| Flight time | 1h 14m |
| Altitude | 30000 |
| Route | VUKOB1 GAVIS A552 UTKIV UQ125 BAQ UL220 CTG UL335 BOGAL |
| Aircraft | MD82/M-SDFGIRWY/S |
Departure
| Time | 2026-05-07 02:54 |
|---|---|
| Airport | La Chinita International Airport (SVMC) |
Arrival
| Time | 2026-05-07 04:09 |
|---|---|
| Airport | Tocumen International Airport (MPTO) |
| Time | Latitude | Longitude | Altitude | Speed | Heading |
|---|---|---|---|---|---|
| 2026-05-07 02:23 | 10.55664 | -71.72462 | 216 ft | 0 kts | 129° |
| 2026-05-07 02:40 | 10.55665 | -71.72464 | 219 ft | 3 kts | 129° |
| 2026-05-07 02:40 | 10.55678 | -71.72480 | 219 ft | 3 kts | 129° |
| 2026-05-07 02:40 | 10.55691 | -71.72495 | 219 ft | 3 kts | 131° |
| 2026-05-07 02:40 | 10.55702 | -71.72506 | 219 ft | 2 kts | 144° |
| 2026-05-07 02:41 | 10.55710 | -71.72511 | 219 ft | 1 kts | 166° |
| 2026-05-07 02:41 | 10.55718 | -71.72512 | 219 ft | 1 kts | 186° |
| 2026-05-07 02:41 | 10.55726 | -71.72510 | 219 ft | 1 kts | 198° |
| 2026-05-07 02:41 | 10.55733 | -71.72507 | 219 ft | 1 kts | 202° |
| 2026-05-07 02:42 | 10.55736 | -71.72506 | 219 ft | 0 kts | 203° |
| 2026-05-07 02:45 | 10.55733 | -71.72507 | 219 ft | 1 kts | 203° |
| 2026-05-07 02:46 | 10.55725 | -71.72511 | 219 ft | 2 kts | 205° |
| 2026-05-07 02:46 | 10.55695 | -71.72526 | 217 ft | 7 kts | 205° |
| 2026-05-07 02:46 | 10.55662 | -71.72556 | 221 ft | 6 kts | 261° |
| 2026-05-07 02:46 | 10.55668 | -71.72598 | 223 ft | 7 kts | 287° |
| 2026-05-07 02:47 | 10.55686 | -71.72646 | 219 ft | 8 kts | 292° |
| 2026-05-07 02:47 | 10.55707 | -71.72699 | 219 ft | 6 kts | 285° |
| 2026-05-07 02:47 | 10.55707 | -71.72711 | 217 ft | 0 kts | 256° |
| 2026-05-07 02:47 | 10.55705 | -71.72716 | 217 ft | 1 kts | 253° |
| 2026-05-07 02:48 | 10.55697 | -71.72729 | 221 ft | 3 kts | 231° |
| 2026-05-07 02:48 | 10.55683 | -71.72743 | 218 ft | 3 kts | 217° |
| 2026-05-07 02:48 | 10.55637 | -71.72768 | 222 ft | 15 kts | 205° |
| 2026-05-07 02:48 | 10.55536 | -71.72811 | 219 ft | 16 kts | 202° |
| 2026-05-07 02:49 | 10.55429 | -71.72857 | 223 ft | 17 kts | 203° |
| 2026-05-07 02:49 | 10.55317 | -71.72905 | 218 ft | 18 kts | 201° |
| 2026-05-07 02:49 | 10.55203 | -71.72953 | 220 ft | 18 kts | 203° |
| 2026-05-07 02:49 | 10.55086 | -71.73003 | 221 ft | 19 kts | 203° |
| 2026-05-07 02:50 | 10.54962 | -71.73056 | 219 ft | 20 kts | 203° |
| 2026-05-07 02:50 | 10.54836 | -71.73110 | 222 ft | 20 kts | 203° |
| 2026-05-07 02:50 | 10.54712 | -71.73174 | 216 ft | 20 kts | 220° |
| 2026-05-07 02:50 | 10.54614 | -71.73268 | 220 ft | 19 kts | 225° |
| 2026-05-07 02:51 | 10.54579 | -71.73350 | 221 ft | 0 kts | 288° |
| 2026-05-07 02:52 | 10.54586 | -71.73374 | 221 ft | 6 kts | 287° |
| 2026-05-07 02:52 | 10.54606 | -71.73394 | 222 ft | 3 kts | 349° |
| 2026-05-07 02:52 | 10.54627 | -71.73393 | 223 ft | 3 kts | 8° |
| 2026-05-07 02:52 | 10.54637 | -71.73391 | 222 ft | 0 kts | 15° |
| 2026-05-07 02:53 | 10.54649 | -71.73388 | 218 ft | 10 kts | 17° |
| 2026-05-07 02:53 | 10.54836 | -71.73310 | 220 ft | 52 kts | 22° |
| 2026-05-07 02:54 | 10.55380 | -71.73083 | 224 ft | 116 kts | 22° |
| 2026-05-07 02:54 | 10.56280 | -71.72696 | 245 ft | 166 kts | 22° |
| 2026-05-07 02:54 | 10.57336 | -71.72117 | 900 ft | 168 kts | 34° |
| 2026-05-07 02:54 | 10.58316 | -71.71455 | 1691 ft | 171 kts | 32° |
| 2026-05-07 02:55 | 10.59300 | -71.70851 | 2554 ft | 167 kts | 25° |
| 2026-05-07 02:55 | 10.60482 | -71.70416 | 2953 ft | 186 kts | 18° |
| 2026-05-07 02:55 | 10.61731 | -71.70022 | 3575 ft | 198 kts | 18° |
| 2026-05-07 02:55 | 10.63075 | -71.69582 | 4246 ft | 202 kts | 24° |
| 2026-05-07 02:56 | 10.64262 | -71.68847 | 5071 ft | 199 kts | 48° |
| 2026-05-07 02:56 | 10.65057 | -71.67715 | 5697 ft | 199 kts | 71° |
| 2026-05-07 02:56 | 10.65371 | -71.66319 | 6100 ft | 210 kts | 91° |
| 2026-05-07 02:56 | 10.65151 | -71.64800 | 6426 ft | 227 kts | 110° |
| 2026-05-07 02:57 | 10.64392 | -71.63350 | 6697 ft | 246 kts | 128° |
| 2026-05-07 02:57 | 10.63111 | -71.62116 | 6991 ft | 264 kts | 147° |
| 2026-05-07 02:57 | 10.61335 | -71.61506 | 7387 ft | 279 kts | 176° |
| 2026-05-07 02:57 | 10.59426 | -71.61869 | 8018 ft | 286 kts | 204° |
| 2026-05-07 02:58 | 10.57850 | -71.63116 | 8639 ft | 294 kts | 230° |
| 2026-05-07 02:58 | 10.56951 | -71.64999 | 9245 ft | 303 kts | 257° |
| 2026-05-07 02:58 | 10.56901 | -71.67143 | 9887 ft | 307 kts | 276° |
| 2026-05-07 02:58 | 10.57149 | -71.69333 | 10239 ft | 320 kts | 272° |
| 2026-05-07 02:59 | 10.57364 | -71.71663 | 10414 ft | 341 kts | 277° |
| 2026-05-07 02:59 | 10.57851 | -71.74056 | 10596 ft | 360 kts | 285° |
| 2026-05-07 02:59 | 10.58597 | -71.76547 | 10839 ft | 376 kts | 286° |
| 2026-05-07 02:59 | 10.59324 | -71.79117 | 11389 ft | 380 kts | 284° |
| 2026-05-07 03:00 | 10.59959 | -71.81732 | 11996 ft | 383 kts | 282° |
| 2026-05-07 03:00 | 10.60524 | -71.84391 | 12538 ft | 387 kts | 281° |
| 2026-05-07 03:00 | 10.61044 | -71.87097 | 13062 ft | 393 kts | 281° |
| 2026-05-07 03:00 | 10.61541 | -71.89846 | 13602 ft | 398 kts | 281° |
| 2026-05-07 03:01 | 10.62023 | -71.92590 | 14082 ft | 402 kts | 281° |
| 2026-05-07 03:01 | 10.62510 | -71.95394 | 14666 ft | 403 kts | 281° |
| 2026-05-07 03:01 | 10.62996 | -71.98189 | 15287 ft | 402 kts | 281° |
| 2026-05-07 03:01 | 10.63490 | -72.00995 | 15880 ft | 404 kts | 282° |
| 2026-05-07 03:02 | 10.63992 | -72.03807 | 16447 ft | 405 kts | 282° |
| 2026-05-07 03:02 | 10.64500 | -72.06625 | 17042 ft | 407 kts | 283° |
| 2026-05-07 03:02 | 10.65015 | -72.09458 | 17626 ft | 408 kts | 283° |
| 2026-05-07 03:02 | 10.65531 | -72.12296 | 18192 ft | 409 kts | 283° |
| 2026-05-07 03:03 | 10.66051 | -72.15150 | 18655 ft | 411 kts | 283° |
| 2026-05-07 03:03 | 10.66566 | -72.17981 | 19063 ft | 414 kts | 283° |
| 2026-05-07 03:03 | 10.67090 | -72.20867 | 19485 ft | 417 kts | 283° |
| 2026-05-07 03:03 | 10.67581 | -72.23783 | 19914 ft | 420 kts | 282° |
| 2026-05-07 03:04 | 10.68022 | -72.26724 | 20319 ft | 422 kts | 281° |
| 2026-05-07 03:04 | 10.68441 | -72.29688 | 20717 ft | 425 kts | 281° |
| 2026-05-07 03:04 | 10.68858 | -72.32674 | 21100 ft | 428 kts | 281° |
| 2026-05-07 03:04 | 10.69281 | -72.35675 | 21493 ft | 430 kts | 281° |
| 2026-05-07 03:05 | 10.69707 | -72.38648 | 21917 ft | 432 kts | 281° |
| 2026-05-07 03:05 | 10.70149 | -72.41678 | 22279 ft | 435 kts | 281° |
| 2026-05-07 03:05 | 10.70600 | -72.44728 | 22647 ft | 437 kts | 281° |
| 2026-05-07 03:05 | 10.71055 | -72.47793 | 23015 ft | 440 kts | 281° |
| 2026-05-07 03:06 | 10.71513 | -72.50878 | 23412 ft | 442 kts | 281° |
| 2026-05-07 03:06 | 10.71971 | -72.53972 | 23730 ft | 444 kts | 281° |
| 2026-05-07 03:06 | 10.72432 | -72.57087 | 24042 ft | 446 kts | 282° |
| 2026-05-07 03:06 | 10.72895 | -72.60208 | 24366 ft | 447 kts | 281° |
| 2026-05-07 03:07 | 10.73358 | -72.63332 | 24661 ft | 448 kts | 281° |
| 2026-05-07 03:07 | 10.73822 | -72.66475 | 24976 ft | 450 kts | 281° |
| 2026-05-07 03:07 | 10.74273 | -72.69631 | 25256 ft | 452 kts | 279° |
| 2026-05-07 03:07 | 10.74514 | -72.72785 | 25513 ft | 456 kts | 275° |
| 2026-05-07 03:08 | 10.74594 | -72.76017 | 25844 ft | 457 kts | 273° |
| 2026-05-07 03:08 | 10.74626 | -72.79255 | 26166 ft | 458 kts | 272° |
| 2026-05-07 03:08 | 10.74661 | -72.82500 | 26417 ft | 460 kts | 273° |
| 2026-05-07 03:08 | 10.74709 | -72.85764 | 26682 ft | 462 kts | 273° |
| 2026-05-07 03:09 | 10.74777 | -72.89034 | 26989 ft | 463 kts | 273° |
| 2026-05-07 03:09 | 10.74863 | -72.92308 | 27298 ft | 464 kts | 274° |
| 2026-05-07 03:09 | 10.74961 | -72.95598 | 27551 ft | 466 kts | 274° |
| 2026-05-07 03:09 | 10.75062 | -72.98894 | 27808 ft | 468 kts | 274° |
| 2026-05-07 03:10 | 10.75162 | -73.02160 | 28056 ft | 470 kts | 273° |
| 2026-05-07 03:10 | 10.75261 | -73.05483 | 28312 ft | 471 kts | 273° |
| 2026-05-07 03:10 | 10.75357 | -73.08814 | 28635 ft | 471 kts | 273° |
| 2026-05-07 03:10 | 10.75450 | -73.12134 | 29045 ft | 468 kts | 273° |
| 2026-05-07 03:11 | 10.75538 | -73.15434 | 29464 ft | 466 kts | 273° |
| 2026-05-07 03:11 | 10.75626 | -73.18726 | 29798 ft | 466 kts | 273° |
| 2026-05-07 03:11 | 10.75714 | -73.22035 | 29925 ft | 468 kts | 273° |
| 2026-05-07 03:11 | 10.75802 | -73.25342 | 29991 ft | 468 kts | 273° |
| 2026-05-07 03:12 | 10.76002 | -73.31939 | 30041 ft | 465 kts | 275° |
| 2026-05-07 03:12 | 10.76244 | -73.38459 | 30066 ft | 464 kts | 274° |
| 2026-05-07 03:13 | 10.76374 | -73.45013 | 30078 ft | 464 kts | 274° |
| 2026-05-07 03:13 | 10.76523 | -73.51591 | 30103 ft | 467 kts | 274° |
| 2026-05-07 03:14 | 10.76697 | -73.58205 | 30121 ft | 469 kts | 274° |
| 2026-05-07 03:15 | 10.76926 | -73.68087 | 30112 ft | 467 kts | 274° |
| 2026-05-07 03:15 | 10.77099 | -73.74686 | 30106 ft | 466 kts | 274° |
| 2026-05-07 03:16 | 10.77251 | -73.81276 | 30089 ft | 466 kts | 274° |
| 2026-05-07 03:16 | 10.77392 | -73.87868 | 30071 ft | 466 kts | 274° |
| 2026-05-07 03:17 | 10.77540 | -73.94463 | 30050 ft | 467 kts | 274° |
| 2026-05-07 03:17 | 10.77687 | -74.01019 | 30027 ft | 467 kts | 273° |
| 2026-05-07 03:18 | 10.77801 | -74.07625 | 30017 ft | 467 kts | 272° |
| 2026-05-07 03:18 | 10.77926 | -74.14234 | 29984 ft | 468 kts | 272° |
| 2026-05-07 03:19 | 10.78084 | -74.20858 | 29960 ft | 469 kts | 273° |
| 2026-05-07 03:19 | 10.78242 | -74.27485 | 29947 ft | 469 kts | 272° |
| 2026-05-07 03:20 | 10.78393 | -74.34080 | 29927 ft | 470 kts | 272° |
| 2026-05-07 03:20 | 10.78545 | -74.40721 | 29936 ft | 470 kts | 272° |
| 2026-05-07 03:21 | 10.78695 | -74.47360 | 29924 ft | 469 kts | 272° |
| 2026-05-07 03:21 | 10.78844 | -74.53978 | 29921 ft | 469 kts | 272° |
| 2026-05-07 03:22 | 10.78992 | -74.60610 | 29917 ft | 470 kts | 272° |
| 2026-05-07 03:22 | 10.79118 | -74.67260 | 29918 ft | 471 kts | 272° |
| 2026-05-07 03:23 | 10.79251 | -74.73873 | 29914 ft | 471 kts | 272° |
| 2026-05-07 03:23 | 10.79399 | -74.80545 | 29908 ft | 472 kts | 272° |
| 2026-05-07 03:23 | 10.79260 | -74.83881 | 29911 ft | 474 kts | 260° |
| 2026-05-07 03:24 | 10.78245 | -74.87059 | 29929 ft | 475 kts | 242° |
| 2026-05-07 03:24 | 10.76391 | -74.89835 | 29950 ft | 475 kts | 229° |
| 2026-05-07 03:24 | 10.74166 | -74.92320 | 29935 ft | 476 kts | 226° |
| 2026-05-07 03:25 | 10.69534 | -74.97150 | 29931 ft | 477 kts | 225° |
| 2026-05-07 03:25 | 10.64971 | -75.01988 | 29929 ft | 478 kts | 226° |
| 2026-05-07 03:26 | 10.60461 | -75.06946 | 29932 ft | 477 kts | 227° |
| 2026-05-07 03:26 | 10.55980 | -75.11929 | 29930 ft | 477 kts | 227° |
| 2026-05-07 03:27 | 10.51496 | -75.16897 | 29943 ft | 477 kts | 227° |
| 2026-05-07 03:27 | 10.47025 | -75.21821 | 29936 ft | 477 kts | 227° |
| 2026-05-07 03:28 | 10.42519 | -75.26773 | 29921 ft | 477 kts | 227° |
| 2026-05-07 03:28 | 10.38014 | -75.31724 | 29915 ft | 477 kts | 227° |
| 2026-05-07 03:29 | 10.33514 | -75.36673 | 29916 ft | 477 kts | 227° |
| 2026-05-07 03:29 | 10.29011 | -75.41624 | 29926 ft | 477 kts | 227° |
| 2026-05-07 03:30 | 10.24535 | -75.46544 | 29923 ft | 478 kts | 227° |
| 2026-05-07 03:30 | 10.20395 | -75.51793 | 29930 ft | 477 kts | 245° |
| 2026-05-07 03:31 | 10.18153 | -75.58118 | 29929 ft | 477 kts | 253° |
| 2026-05-07 03:31 | 10.16185 | -75.64556 | 29931 ft | 478 kts | 253° |
| 2026-05-07 03:32 | 10.14138 | -75.70983 | 29936 ft | 479 kts | 252° |
| 2026-05-07 03:32 | 10.12021 | -75.77341 | 29932 ft | 479 kts | 251° |
| 2026-05-07 03:33 | 10.09868 | -75.83742 | 29939 ft | 478 kts | 251° |
| 2026-05-07 03:33 | 10.07732 | -75.90133 | 29934 ft | 477 kts | 252° |
| 2026-05-07 03:34 | 10.05606 | -75.96518 | 29941 ft | 478 kts | 252° |
| 2026-05-07 03:34 | 10.03472 | -76.02906 | 29941 ft | 479 kts | 252° |
| 2026-05-07 03:35 | 10.01348 | -76.09263 | 29941 ft | 479 kts | 252° |
| 2026-05-07 03:35 | 9.99210 | -76.15664 | 29939 ft | 480 kts | 252° |
| 2026-05-07 03:36 | 9.97068 | -76.22078 | 29938 ft | 480 kts | 252° |
| 2026-05-07 03:36 | 9.94927 | -76.28493 | 29939 ft | 481 kts | 252° |
| 2026-05-07 03:37 | 9.92781 | -76.34912 | 29941 ft | 480 kts | 252° |
| 2026-05-07 03:37 | 9.90647 | -76.41271 | 29941 ft | 479 kts | 251° |
| 2026-05-07 03:38 | 9.88500 | -76.47664 | 29942 ft | 479 kts | 251° |
| 2026-05-07 03:38 | 9.86356 | -76.54061 | 29939 ft | 479 kts | 251° |
| 2026-05-07 03:39 | 9.84209 | -76.60466 | 29946 ft | 480 kts | 252° |
| 2026-05-07 03:39 | 9.82056 | -76.66884 | 29950 ft | 481 kts | 252° |
| 2026-05-07 03:40 | 9.79918 | -76.73259 | 29940 ft | 481 kts | 251° |
| 2026-05-07 03:40 | 9.77751 | -76.79692 | 29945 ft | 482 kts | 251° |
| 2026-05-07 03:41 | 9.75586 | -76.86113 | 29945 ft | 480 kts | 251° |
| 2026-05-07 03:41 | 9.73430 | -76.92512 | 29944 ft | 479 kts | 251° |
| 2026-05-07 03:42 | 9.71291 | -76.98865 | 29946 ft | 480 kts | 251° |
| 2026-05-07 03:42 | 9.69132 | -77.05275 | 29952 ft | 481 kts | 251° |
| 2026-05-07 03:43 | 9.66971 | -77.11689 | 29947 ft | 481 kts | 251° |
| 2026-05-07 03:43 | 9.64772 | -77.18104 | 29950 ft | 482 kts | 251° |
| 2026-05-07 03:44 | 9.62584 | -77.24525 | 29953 ft | 482 kts | 251° |
| 2026-05-07 03:44 | 9.60437 | -77.30918 | 29953 ft | 482 kts | 252° |
| 2026-05-07 03:45 | 9.58290 | -77.37333 | 29955 ft | 480 kts | 251° |
| 2026-05-07 03:45 | 9.56121 | -77.43733 | 29945 ft | 481 kts | 250° |
| 2026-05-07 03:46 | 9.53780 | -77.50086 | 29947 ft | 482 kts | 249° |
| 2026-05-07 03:46 | 9.51407 | -77.56437 | 29947 ft | 482 kts | 250° |
| 2026-05-07 03:47 | 9.49458 | -77.61730 | 29951 ft | 483 kts | 250° |
| 2026-05-07 03:47 | 9.46731 | -77.69196 | 29959 ft | 483 kts | 250° |
| 2026-05-07 03:48 | 9.44417 | -77.75533 | 29951 ft | 483 kts | 250° |
| 2026-05-07 03:48 | 9.42085 | -77.81908 | 29953 ft | 482 kts | 250° |
| 2026-05-07 03:49 | 9.39750 | -77.88264 | 29961 ft | 482 kts | 250° |
| 2026-05-07 03:49 | 9.37406 | -77.94627 | 29964 ft | 482 kts | 250° |
| 2026-05-07 03:50 | 9.35081 | -78.00949 | 29958 ft | 483 kts | 250° |
| 2026-05-07 03:50 | 9.32737 | -78.07325 | 29969 ft | 483 kts | 250° |
| 2026-05-07 03:51 | 9.30394 | -78.13694 | 29965 ft | 483 kts | 250° |
| 2026-05-07 03:51 | 9.28047 | -78.20075 | 29968 ft | 484 kts | 250° |
| 2026-05-07 03:52 | 9.25691 | -78.26467 | 29520 ft | 489 kts | 250° |
| 2026-05-07 03:52 | 9.24507 | -78.29671 | 28981 ft | 482 kts | 250° |
| 2026-05-07 03:52 | 9.23354 | -78.32789 | 28359 ft | 476 kts | 250° |
| 2026-05-07 03:52 | 9.22200 | -78.35910 | 27678 ft | 472 kts | 250° |
| 2026-05-07 03:53 | 9.21055 | -78.39009 | 26947 ft | 469 kts | 250° |
| 2026-05-07 03:53 | 9.19914 | -78.42098 | 26188 ft | 468 kts | 250° |
| 2026-05-07 03:53 | 9.18776 | -78.45180 | 25447 ft | 467 kts | 250° |
| 2026-05-07 03:53 | 9.17642 | -78.48250 | 24725 ft | 466 kts | 250° |
| 2026-05-07 03:54 | 9.16508 | -78.51320 | 23999 ft | 465 kts | 249° |
| 2026-05-07 03:54 | 9.15377 | -78.54385 | 23236 ft | 464 kts | 249° |
| 2026-05-07 03:54 | 9.14268 | -78.57389 | 22410 ft | 445 kts | 249° |
| 2026-05-07 03:54 | 9.13223 | -78.60218 | 21665 ft | 425 kts | 249° |
| 2026-05-07 03:55 | 9.12206 | -78.62963 | 20964 ft | 408 kts | 249° |
| 2026-05-07 03:55 | 9.11227 | -78.65602 | 20299 ft | 394 kts | 249° |
| 2026-05-07 03:55 | 9.10266 | -78.68190 | 19670 ft | 395 kts | 249° |
| 2026-05-07 03:55 | 9.09279 | -78.70847 | 19062 ft | 412 kts | 249° |
| 2026-05-07 03:56 | 9.08270 | -78.73568 | 18451 ft | 411 kts | 249° |
| 2026-05-07 03:56 | 9.07278 | -78.76245 | 17750 ft | 402 kts | 249° |
| 2026-05-07 03:56 | 9.06307 | -78.78869 | 17069 ft | 395 kts | 248° |
| 2026-05-07 03:56 | 9.05348 | -78.81461 | 16420 ft | 391 kts | 248° |
| 2026-05-07 03:57 | 9.04411 | -78.83993 | 15808 ft | 388 kts | 248° |
| 2026-05-07 03:57 | 9.03465 | -78.86538 | 15194 ft | 384 kts | 248° |
| 2026-05-07 03:57 | 9.02533 | -78.89049 | 14595 ft | 380 kts | 248° |
| 2026-05-07 03:57 | 9.01606 | -78.91542 | 14006 ft | 376 kts | 247° |
| 2026-05-07 03:58 | 9.00692 | -78.94005 | 13376 ft | 372 kts | 247° |
| 2026-05-07 03:58 | 9.00026 | -78.95788 | 12915 ft | 369 kts | 248° |
| 2026-05-07 03:58 | 8.99294 | -78.97747 | 12414 ft | 365 kts | 248° |
| 2026-05-07 03:58 | 8.98402 | -79.00139 | 11834 ft | 361 kts | 248° |
| 2026-05-07 03:59 | 8.97519 | -79.02510 | 11268 ft | 358 kts | 248° |
| 2026-05-07 03:59 | 8.96647 | -79.04853 | 10704 ft | 353 kts | 248° |
| 2026-05-07 03:59 | 8.95821 | -79.07074 | 10402 ft | 328 kts | 248° |
| 2026-05-07 03:59 | 8.95054 | -79.09141 | 10231 ft | 301 kts | 248° |
| 2026-05-07 04:00 | 8.94343 | -79.11054 | 10118 ft | 283 kts | 248° |
| 2026-05-07 04:00 | 8.93633 | -79.12958 | 10050 ft | 295 kts | 248° |
| 2026-05-07 04:00 | 8.92908 | -79.14902 | 9935 ft | 297 kts | 248° |
| 2026-05-07 04:00 | 8.92167 | -79.16892 | 9392 ft | 308 kts | 249° |
| 2026-05-07 04:01 | 8.91401 | -79.18944 | 8750 ft | 316 kts | 249° |
| 2026-05-07 04:01 | 8.90629 | -79.21012 | 8158 ft | 321 kts | 249° |
| 2026-05-07 04:01 | 8.89830 | -79.23158 | 7567 ft | 323 kts | 249° |
| 2026-05-07 04:01 | 8.89057 | -79.25236 | 6983 ft | 312 kts | 249° |
| 2026-05-07 04:02 | 8.88309 | -79.27239 | 6406 ft | 298 kts | 249° |
| 2026-05-07 04:02 | 8.87594 | -79.29156 | 5829 ft | 285 kts | 250° |
| 2026-05-07 04:02 | 8.86909 | -79.30998 | 5331 ft | 273 kts | 250° |
| 2026-05-07 04:02 | 8.86269 | -79.32716 | 5225 ft | 250 kts | 250° |
| 2026-05-07 04:03 | 8.85668 | -79.34330 | 5128 ft | 245 kts | 250° |
| 2026-05-07 04:03 | 8.85053 | -79.35985 | 5065 ft | 256 kts | 250° |
| 2026-05-07 04:03 | 8.84460 | -79.37688 | 5003 ft | 263 kts | 257° |
| 2026-05-07 04:03 | 8.84266 | -79.39535 | 4958 ft | 264 kts | 277° |
| 2026-05-07 04:04 | 8.84681 | -79.41328 | 4924 ft | 264 kts | 298° |
| 2026-05-07 04:04 | 8.85574 | -79.42931 | 4774 ft | 266 kts | 307° |
| 2026-05-07 04:04 | 8.86566 | -79.44464 | 4437 ft | 254 kts | 307° |
| 2026-05-07 04:04 | 8.87589 | -79.45889 | 4127 ft | 247 kts | 320° |
| 2026-05-07 04:05 | 8.89027 | -79.46671 | 3843 ft | 227 kts | 355° |
| 2026-05-07 04:05 | 8.90537 | -79.46574 | 3478 ft | 217 kts | 15° |
| 2026-05-07 04:05 | 8.92011 | -79.46146 | 2821 ft | 222 kts | 22° |
| 2026-05-07 04:05 | 8.93435 | -79.45578 | 2433 ft | 214 kts | 25° |
| 2026-05-07 04:06 | 8.94781 | -79.44936 | 2205 ft | 215 kts | 31° |
| 2026-05-07 04:06 | 8.96099 | -79.44213 | 1944 ft | 212 kts | 31° |
| 2026-05-07 04:06 | 8.97346 | -79.43522 | 1829 ft | 196 kts | 31° |
| 2026-05-07 04:06 | 8.98447 | -79.42895 | 1507 ft | 172 kts | 31° |
| 2026-05-07 04:07 | 8.99440 | -79.42322 | 1168 ft | 157 kts | 32° |
| 2026-05-07 04:07 | 9.00345 | -79.41803 | 948 ft | 144 kts | 32° |
| 2026-05-07 04:07 | 9.01199 | -79.41313 | 842 ft | 141 kts | 32° |
| 2026-05-07 04:07 | 9.02076 | -79.40808 | 808 ft | 153 kts | 32° |
| 2026-05-07 04:08 | 9.03003 | -79.40259 | 553 ft | 156 kts | 33° |
| 2026-05-07 04:08 | 9.03958 | -79.39722 | 240 ft | 157 kts | 31° |
| 2026-05-07 04:08 | 9.04893 | -79.39189 | 52 ft | 151 kts | 32° |
| 2026-05-07 04:08 | 9.05709 | -79.38731 | 32 ft | 120 kts | 30° |
| 2026-05-07 04:09 | 9.06292 | -79.38392 | 31 ft | 73 kts | 30° |
| 2026-05-07 04:09 | 9.06678 | -79.38172 | 29 ft | 48 kts | 29° |
| 2026-05-07 04:09 | 9.06939 | -79.38023 | 30 ft | 38 kts | 29° |
| 2026-05-07 04:09 | 9.07099 | -79.37935 | 30 ft | 10 kts | 23° |
| 2026-05-07 04:10 | 9.07159 | -79.37949 | 31 ft | 9 kts | 313° |
| 2026-05-07 04:10 | 9.07187 | -79.37991 | 31 ft | 0 kts | 302° |
| 2026-05-07 04:10 | 9.07189 | -79.37994 | 31 ft | 1 kts | 302° |
| 2026-05-07 04:10 | 9.07194 | -79.38002 | 31 ft | 2 kts | 302° |
| 2026-05-07 04:11 | 9.07202 | -79.38017 | 31 ft | 3 kts | 292° |
| 2026-05-07 04:11 | 9.07203 | -79.38038 | 31 ft | 3 kts | 258° |
| 2026-05-07 04:11 | 9.07191 | -79.38057 | 31 ft | 4 kts | 225° |
| 2026-05-07 04:11 | 9.07169 | -79.38077 | 31 ft | 4 kts | 216° |
| 2026-05-07 04:12 | 9.07143 | -79.38093 | 31 ft | 5 kts | 211° |
| 2026-05-07 04:12 | 9.07110 | -79.38113 | 31 ft | 6 kts | 211° |
| 2026-05-07 04:12 | 9.07072 | -79.38136 | 31 ft | 7 kts | 211° |
| 2026-05-07 04:12 | 9.07029 | -79.38162 | 31 ft | 7 kts | 208° |
| 2026-05-07 04:13 | 9.06981 | -79.38186 | 31 ft | 8 kts | 207° |
| 2026-05-07 04:13 | 9.06934 | -79.38220 | 31 ft | 9 kts | 221° |
| 2026-05-07 04:13 | 9.06894 | -79.38269 | 31 ft | 9 kts | 236° |
| 2026-05-07 04:13 | 9.06861 | -79.38324 | 31 ft | 7 kts | 250° |
| 2026-05-07 04:14 | 9.06850 | -79.38365 | 31 ft | 6 kts | 255° |
| 2026-05-07 04:14 | 9.06838 | -79.38412 | 31 ft | 7 kts | 257° |
| 2026-05-07 04:14 | 9.06833 | -79.38440 | 31 ft | 0 kts | 258° |